Time;durP1;ratioP1;P1;durP2;ratioP2;P2;SDS_P1;SDS_P2;PMS_P1;PMS_P2;Temp;Humidity;BMP_temperature;BMP_pressure;BME280_temperature;BME280_humidity;BME280_pressure;Samples;Min_cycle;Max_cycle;Signal;HPM_P1;HPM_P2
2021/12/21 00:00:32;;;;;;;10.35;3.65;;;-0.30;99.90;;;;;;5095761;28;20210;-81
2021/12/21 00:03:00;;;;;;;7.18;4.10;;;-0.40;99.90;;;;;;5101187;28;20199;-81
2021/12/21 00:05:29;;;;;;;8.32;4.80;;;;;;;;;;5103617;28;20206;-82
2021/12/21 00:07:58;;;;;;;9.90;5.15;;;-0.40;99.90;;;;;;5104429;28;20542;-81
2021/12/21 00:10:28;;;;;;;5.65;4.13;;;-0.30;99.90;;;;;;5100499;28;20211;-81
2021/12/21 00:13:06;;;;;;;10.00;4.88;;;-0.30;99.90;;;;;;5098075;28;20583;-81
2021/12/21 00:15:42;;;;;;;6.18;4.35;;;;;;;;;;5106255;28;20263;-81
2021/12/21 00:18:22;;;;;;;9.82;4.38;;;;;;;;;;5098728;28;20197;-81
2021/12/21 00:20:57;;;;;;;5.03;3.42;;;;;;;;;;5100675;28;20202;-81
2021/12/21 00:23:33;;;;;;;5.53;4.28;;;;;;;;;;5099049;28;20194;-81
2021/12/21 00:26:04;;;;;;;5.88;4.45;;;-0.30;99.90;;;;;;5102469;28;20213;-81
2021/12/21 00:28:36;;;;;;;4.60;3.53;;;;;;;;;;5101142;28;20202;-82
2021/12/21 00:31:03;;;;;;;4.72;4.13;;;;;;;;;;5098430;28;20584;-81
2021/12/21 00:33:31;;;;;;;10.90;4.38;;;;;;;;;;5099185;28;20230;-81
2021/12/21 00:35:59;;;;;;;5.60;4.47;;;;;;;;;;5103173;28;20284;-81
2021/12/21 00:38:26;;;;;;;9.00;3.72;;;;;;;;;;5093824;28;20228;-81
2021/12/21 00:40:54;;;;;;;4.32;3.00;;;;;;;;;;5105305;28;20523;-82
2021/12/21 00:43:21;;;;;;;7.00;4.95;;;;;;;;;;5098311;28;20202;-81
2021/12/21 00:45:48;;;;;;;5.18;3.50;;;;;;;;;;5100948;28;20566;-82
2021/12/21 00:48:16;;;;;;;6.72;4.10;;;;;;;;;;5096750;28;20206;-81
2021/12/21 00:50:45;;;;;;;3.15;2.85;;;-0.30;99.90;;;;;;5100175;28;20962;-81
2021/12/21 00:53:13;;;;;;;3.55;3.25;;;;;;;;;;5101685;28;20230;-81
2021/12/21 00:55:40;;;;;;;6.22;3.70;;;;;;;;;;5100915;28;20613;-81
2021/12/21 00:58:08;;;;;;;15.50;4.60;;;;;;;;;;5101219;28;20340;-81
2021/12/21 01:00:35;;;;;;;6.18;2.97;;;;;;;;;;5101834;28;20248;-81
2021/12/21 01:03:09;;;;;;;3.75;3.35;;;;;;;;;;5103645;28;20733;-81
2021/12/21 01:05:44;;;;;;;4.20;3.53;;;;;;;;;;5095973;28;20683;-81
2021/12/21 01:08:17;;;;;;;6.68;4.80;;;;;;;;;;5095557;28;21134;-81
2021/12/21 01:10:59;;;;;;;4.00;2.88;;;;;;;;;;5100499;28;20209;-81
2021/12/21 01:16:21;;;;;;;8.20;4.30;;;;;;;;;;5097027;28;20696;-81
2021/12/21 01:19:07;;;;;;;12.43;3.97;;;;;;;;;;5099624;28;20197;-81
2021/12/21 01:21:40;;;;;;;3.78;3.40;;;;;;;;;;5100379;28;20209;-81
2021/12/21 01:24:22;;;;;;;7.30;3.38;;;-0.40;99.90;;;;;;5097236;28;20574;-81
2021/12/21 01:29:49;;;;;;;5.95;2.80;;;;;;;;;;5083321;28;20214;-81
2021/12/21 01:32:25;;;;;;;4.43;2.92;;;;;;;;;;5100383;28;20263;-81
2021/12/21 01:35:00;;;;;;;2.83;2.63;;;;;;;;;;5098097;28;20221;-81
2021/12/21 01:37:35;;;;;;;8.25;2.90;;;;;;;;;;5099868;28;20255;-81
2021/12/21 01:40:19;;;;;;;4.28;2.58;;;-0.30;99.90;;;;;;5099940;28;20256;-81
2021/12/21 01:43:06;;;;;;;9.82;2.92;;;;;;;;;;5096023;28;20207;-82
2021/12/21 01:51:07;;;;;;;3.50;2.60;;;;;;;;;;5100964;28;20676;-81
2021/12/21 01:53:34;;;;;;;3.90;2.97;;;-0.60;99.90;;;;;;5100072;28;20300;-81
2021/12/21 01:56:04;;;;;;;9.88;3.45;;;-0.60;99.90;;;;;;5099891;28;20217;-81
2021/12/21 01:58:33;;;;;;;3.95;3.55;;;;;;;;;;5097736;28;20202;-81
2021/12/21 02:01:01;;;;;;;3.63;2.97;;;;;;;;;;5102578;28;20206;-81
2021/12/21 02:03:28;;;;;;;4.50;3.15;;;;;;;;;;5096607;28;20873;-81
2021/12/21 02:05:55;;;;;;;5.13;3.25;;;;;;;;;;5098827;28;20791;-81
2021/12/21 02:08:22;;;;;;;7.13;3.20;;;;;;;;;;5095979;28;20256;-81
2021/12/21 02:10:50;;;;;;;3.58;2.97;;;;;;;;;;5103046;28;20267;-81
2021/12/21 02:13:18;;;;;;;5.10;3.35;;;-0.90;99.90;;;;;;5097085;28;20875;-81
2021/12/21 02:15:45;;;;;;;3.10;2.90;;;;;;;;;;5094654;28;20211;-81
2021/12/21 02:20:58;;;;;;;3.10;2.67;;;-1.10;99.90;;;;;;5098023;28;20210;-81
2021/12/21 02:23:32;;;;;;;5.85;3.33;;;-1.20;99.90;;;;;;5098220;28;20712;-81
2021/12/21 02:31:28;;;;;;;4.50;3.38;;;;;;;;;;5091817;28;20214;-82
2021/12/21 02:33:56;;;;;;;5.15;2.95;;;;;;;;;;5098452;28;20238;-82
2021/12/21 02:36:25;;;;;;;2.63;2.42;;;-1.40;99.90;;;;;;5101636;28;20202;-81
2021/12/21 02:38:52;;;;;;;6.47;2.85;;;;;;;;;;5099126;28;20292;-81
2021/12/21 02:41:19;;;;;;;5.07;3.60;;;;;;;;;;5103623;28;20199;-81
2021/12/21 02:43:48;;;;;;;7.53;3.10;;;;;;;;;;5099121;28;20203;-82
2021/12/21 02:46:15;;;;;;;4.00;3.60;;;;;;;;;;5093476;28;20256;-81
2021/12/21 02:48:42;;;;;;;6.32;4.22;;;;;;;;;;5098448;28;20577;-81
2021/12/21 02:51:10;;;;;;;4.63;3.05;;;;;;;;;;5098859;28;20682;-81
2021/12/21 02:53:39;;;;;;;3.40;3.10;;;;;;;;;;5095083;28;20221;-82
2021/12/21 02:56:06;;;;;;;5.20;3.17;;;;;;;;;;5098004;28;20202;-81
2021/12/21 02:58:34;;;;;;;5.35;3.15;;;;;;;;;;5100416;28;20209;-81
2021/12/21 03:01:01;;;;;;;6.57;3.15;;;;;;;;;;5094660;28;20199;-81
2021/12/21 03:03:28;;;;;;;4.97;2.90;;;;;;;;;;5097437;28;20202;-81
2021/12/21 03:05:57;;;;;;;7.55;3.53;;;;;;;;;;5097830;28;20211;-81
2021/12/21 03:08:35;;;;;;;5.75;3.92;;;;;;;;;;5093332;28;20230;-81
2021/12/21 03:11:11;;;;;;;8.32;3.20;;;-1.90;99.90;;;;;;5102407;28;20210;-81
2021/12/21 03:16:20;;;;;;;9.25;4.60;;;-2.10;99.90;;;;;;5088505;28;20735;-81
2021/12/21 03:18:47;;;;;;;3.80;3.50;;;;;;;;;;5099551;28;20206;-81
2021/12/21 03:21:15;;;;;;;3.92;2.80;;;-2.00;99.90;;;;;;5102610;28;20937;-81
2021/12/21 03:23:42;;;;;;;3.10;2.85;;;-2.00;99.90;;;;;;5097890;28;20283;-81
2021/12/21 03:26:11;;;;;;;6.30;3.60;;;-2.10;99.90;;;;;;5100605;28;20198;-81
2021/12/21 03:28:38;;;;;;;3.88;3.17;;;;;;;;;;5098406;28;20205;-81
2021/12/21 03:31:06;;;;;;;11.43;4.50;;;;;;;;;;5096991;28;20612;-81
2021/12/21 03:33:34;;;;;;;5.40;3.35;;;-2.00;99.90;;;;;;5099873;28;20202;-81
2021/12/21 03:36:02;;;;;;;4.30;3.88;;;;;;;;;;5102909;28;20207;-80
2021/12/21 03:38:30;;;;;;;5.00;3.50;;;;;;;;;;5098863;28;20217;-80
2021/12/21 03:41:03;;;;;;;5.47;3.55;;;;;;;;;;5101343;28;20197;-80
2021/12/21 03:43:33;;;;;;;4.13;3.47;;;-2.00;99.90;;;;;;5099741;28;20210;-81
2021/12/21 03:46:07;;;;;;;8.63;3.72;;;;;;;;;;5095920;28;20223;-81
2021/12/21 03:48:37;;;;;;;12.13;4.60;;;;;;;;;;5099519;28;20211;-81
2021/12/21 03:51:05;;;;;;;5.13;3.53;;;-2.20;99.90;;;;;;5105482;28;20198;-81
2021/12/21 03:53:33;;;;;;;6.55;3.70;;;-2.20;99.90;;;;;;5101727;28;20624;-81
2021/12/21 03:56:17;;;;;;;5.22;3.17;;;;;;;;;;5096254;28;20202;-81
2021/12/21 03:58:46;;;;;;;6.32;3.47;;;-2.30;99.90;;;;;;5098726;28;20229;-81
2021/12/21 04:01:13;;;;;;;5.85;3.42;;;;;;;;;;5100176;28;20205;-81
2021/12/21 04:03:40;;;;;;;4.65;4.18;;;;;;;;;;5101906;28;20236;-81
2021/12/21 04:06:08;;;;;;;3.95;2.60;;;;;;;;;;5100105;28;20207;-81
2021/12/21 04:08:35;;;;;;;9.35;3.97;;;-2.30;99.90;;;;;;5101597;28;20730;-81
2021/12/21 04:11:02;;;;;;;4.80;3.50;;;;;;;;;;5101682;28;20201;-81
2021/12/21 04:13:30;;;;;;;4.70;4.07;;;;;;;;;;5100506;28;20206;-81
2021/12/21 04:16:01;;;;;;;18.25;3.80;;;-2.60;99.90;;;;;;5101316;28;20234;-81
2021/12/21 04:18:28;;;;;;;5.85;4.43;;;;;;;;;;5099861;28;20553;-81
2021/12/21 04:20:55;;;;;;;5.28;4.28;;;;;;;;;;5102015;28;20203;-81
2021/12/21 04:23:23;;;;;;;4.65;3.47;;;;;;;;;;5099550;28;20206;-81
2021/12/21 04:25:50;;;;;;;5.68;3.78;;;;;;;;;;5097005;28;20207;-82
2021/12/21 04:28:17;;;;;;;3.72;3.33;;;;;;;;;;5103780;28;20205;-81
2021/12/21 04:30:44;;;;;;;5.45;3.97;;;;;;;;;;5098247;28;20206;-81
2021/12/21 04:33:13;;;;;;;4.80;3.58;;;;;;;;;;5099512;28;20201;-81
2021/12/21 04:35:40;;;;;;;4.82;4.30;;;;;;;;;;5096053;28;20271;-82
2021/12/21 04:38:20;;;;;;;9.23;3.95;;;;;;;;;;5099328;28;20211;-81
2021/12/21 04:40:50;;;;;;;4.18;3.47;;;-2.60;99.90;;;;;;5097026;28;20230;-82
2021/12/21 04:43:17;;;;;;;5.88;4.65;;;;;;;;;;5101066;28;20280;-81
2021/12/21 04:45:45;;;;;;;6.43;3.78;;;;;;;;;;5098414;28;20535;-81
2021/12/21 04:48:13;;;;;;;9.48;4.70;;;-2.70;99.90;;;;;;5101686;28;20209;-81
2021/12/21 04:50:41;;;;;;;4.55;3.88;;;;;;;;;;5100440;28;20207;-81
2021/12/21 04:53:08;;;;;;;4.78;3.90;;;;;;;;;;5100076;28;20728;-81
2021/12/21 04:55:35;;;;;;;5.53;4.20;;;;;;;;;;5102390;27;20269;-81
2021/12/21 04:58:03;;;;;;;5.35;3.45;;;;;;;;;;5099648;27;20200;-81
2021/12/21 05:00:30;;;;;;;5.70;3.85;;;;;;;;;;5115338;27;20755;-81
2021/12/21 05:02:57;;;;;;;6.22;4.45;;;;;;;;;;5100061;28;20211;-81
2021/12/21 05:05:26;;;;;;;6.57;4.78;;;-2.70;99.90;;;;;;5097327;27;20684;-81
2021/12/21 05:08:05;;;;;;;6.60;4.40;;;;;;;;;;5097560;27;20857;-81
2021/12/21 05:10:33;;;;;;;6.53;4.25;;;;;;;;;;5111524;27;20217;-81
2021/12/21 05:13:00;;;;;;;5.53;3.50;;;;;;;;;;5095684;28;20214;-80
2021/12/21 05:15:27;;;;;;;5.15;3.63;;;;;;;;;;5108281;27;20230;-81
2021/12/21 05:17:54;;;;;;;5.72;4.20;;;;;;;;;;5102916;27;20202;-80
2021/12/21 05:20:21;;;;;;;6.55;5.60;;;;;;;;;;5097369;28;20198;-81
2021/12/21 05:22:50;;;;;;;5.05;4.35;;;;;;;;;;5096996;28;20590;-81
2021/12/21 05:25:18;;;;;;;5.43;4.80;;;-2.90;99.90;;;;;;5101607;27;20203;-81
2021/12/21 05:27:45;;;;;;;7.35;5.55;;;;;;;;;;5099464;28;20238;-81
2021/12/21 05:30:13;;;;;;;8.57;6.63;;;-2.90;99.90;;;;;;5110542;27;20303;-81
2021/12/21 05:32:41;;;;;;;6.75;4.95;;;;;;;;;;5099915;28;20601;-81
2021/12/21 05:35:09;;;;;;;5.65;4.25;;;-3.00;99.90;;;;;;5099570;28;20270;-81
2021/12/21 05:37:39;;;;;;;5.03;3.97;;;;;;;;;;5098508;28;20221;-81
2021/12/21 05:40:14;;;;;;;6.18;5.38;;;-3.00;99.90;;;;;;5100311;28;20803;-81
2021/12/21 05:42:41;;;;;;;5.88;4.60;;;;;;;;;;5090689;28;21155;-83
2021/12/21 05:45:10;;;;;;;4.50;3.90;;;-3.00;99.90;;;;;;5096839;28;20569;-82
2021/12/21 05:47:37;;;;;;;5.18;4.18;;;;;;;;;;5098992;28;20209;-82
2021/12/21 05:50:08;;;;;;;5.22;4.65;;;-3.10;99.90;;;;;;5100644;28;20202;-82
2021/12/21 05:52:35;;;;;;;5.63;3.38;;;;;;;;;;5094502;28;20198;-83
2021/12/21 05:55:02;;;;;;;4.32;3.92;;;;;;;;;;5100070;28;20225;-83
2021/12/21 05:57:31;;;;;;;6.65;4.97;;;;;;;;;;5098532;28;20249;-82
2021/12/21 05:59:58;;;;;;;5.90;4.50;;;;;;;;;;5101273;28;20557;-82
2021/12/21 06:02:26;;;;;;;5.00;4.50;;;;;;;;;;5096393;28;20194;-82
2021/12/21 06:04:53;;;;;;;12.77;5.47;;;;;;;;;;5096271;28;20199;-83
2021/12/21 06:07:20;;;;;;;5.72;4.57;;;;;;;;;;5099124;28;20266;-83
2021/12/21 06:09:48;;;;;;;4.28;3.80;;;;;;;;;;5102803;28;20198;-83
2021/12/21 06:12:28;;;;;;;4.32;3.83;;;;;;;;;;5099381;28;20263;-83
2021/12/21 06:26:22;;;;;;;6.88;4.80;;;;;;;;;;5011647;28;20222;-81
2021/12/21 06:28:49;;;;;;;5.43;4.60;;;-3.10;99.90;;;;;;5072472;28;20199;-81
2021/12/21 06:31:17;;;;;;;6.10;3.72;;;;;;;;;;5075524;28;20656;-81
2021/12/21 06:33:46;;;;;;;6.15;3.45;;;-3.10;99.90;;;;;;5073884;28;20265;-82
2021/12/21 06:36:13;;;;;;;5.93;4.90;;;;;;;;;;5066450;28;20291;-81
2021/12/21 06:38:41;;;;;;;8.02;4.25;;;;;;;;;;5074157;28;20204;-81
2021/12/21 06:41:08;;;;;;;4.80;4.32;;;;;;;;;;5062486;28;20277;-82
2021/12/21 06:43:39;;;;;;;9.50;5.32;;;;;;;;;;5070482;28;20195;-83
2021/12/21 06:46:12;;;;;;;5.22;4.30;;;;;;;;;;5070527;28;25360;-83
2021/12/21 06:51:33;;;;;;;8.70;4.68;;;-3.30;99.90;;;;;;5070766;28;20218;-83
2021/12/21 06:54:00;;;;;;;5.03;4.63;;;;;;;;;;5074319;28;20577;-83
2021/12/21 06:56:28;;;;;;;5.95;5.43;;;-3.20;99.90;;;;;;5071994;28;20732;-83
2021/12/21 06:58:56;;;;;;;6.10;4.38;;;-3.40;99.90;;;;;;5068712;28;20210;-84
2021/12/21 07:01:25;;;;;;;5.35;4.85;;;-3.30;99.90;;;;;;5074882;28;20345;-83
2021/12/21 07:03:52;;;;;;;11.95;4.78;;;;;;;;;;5071965;28;20210;-84
2021/12/21 07:06:23;;;;;;;12.85;5.40;;;-3.60;99.90;;;;;;5062398;28;20206;-82
2021/12/21 07:08:59;;;;;;;8.95;5.82;;;;;;;;;;5066274;28;20254;-83
2021/12/21 07:11:30;;;;;;;7.75;5.35;;;;;;;;;;5065079;28;20199;-84
2021/12/21 07:19:32;;;;;;;6.07;4.72;;;-3.50;99.90;;;;;;5064827;28;20211;-83
2021/12/21 07:22:00;;;;;;;4.82;4.30;;;;;;;;;;5061872;28;20204;-83
2021/12/21 07:24:29;;;;;;;7.28;5.53;;;;;;;;;;5064859;28;20200;-83
2021/12/21 07:26:56;;;;;;;5.18;4.35;;;;;;;;;;5068070;28;20207;-83
2021/12/21 07:29:24;;;;;;;6.88;5.07;;;;;;;;;;5052563;28;20215;-83
2021/12/21 07:31:52;;;;;;;6.10;5.05;;;;;;;;;;5050231;28;20204;-83
2021/12/21 07:34:19;;;;;;;7.40;5.05;;;;;;;;;;5050157;28;20569;-83
2021/12/21 07:36:47;;;;;;;6.20;4.60;;;;;;;;;;5050425;28;20630;-83
2021/12/21 07:39:17;;;;;;;5.95;5.45;;;-3.30;99.90;;;;;;5052710;28;20192;-83
2021/12/21 07:41:47;;;;;;;10.25;7.15;;;;;;;;;;5049808;28;20196;-83
2021/12/21 07:44:15;;;;;;;14.50;7.00;;;;;;;;;;5051625;28;20220;-83
2021/12/21 07:46:43;;;;;;;8.30;6.22;;;;;;;;;;5053106;28;20204;-83
2021/12/21 07:49:12;;;;;;;7.68;6.22;;;;;;;;;;5053555;28;20657;-84
2021/12/21 07:51:40;;;;;;;9.93;6.28;;;;;;;;;;5047369;28;20204;-84
2021/12/21 07:54:08;;;;;;;9.43;7.00;;;;;;;;;;5049802;28;20239;-82
2021/12/21 07:56:36;;;;;;;8.07;7.20;;;;;;;;;;5051287;28;20224;-83
2021/12/21 07:59:05;;;;;;;14.27;7.35;;;;;;;;;;5056315;28;20199;-84
2021/12/21 08:01:33;;;;;;;9.38;6.63;;;;;;;;;;5051844;28;20200;-84
2021/12/21 08:04:00;;;;;;;7.93;5.80;;;;;;;;;;5049785;28;20208;-84
2021/12/21 08:06:31;;;;;;;14.43;6.03;;;;;;;;;;5049446;28;20665;-85
2021/12/21 08:08:59;;;;;;;9.20;6.05;;;;;;;;;;5053215;28;20215;-84
2021/12/21 08:12:11;;;;;;;11.80;6.68;;;;;;;;;;5051831;28;20196;-84
2021/12/21 08:14:18;;;;;;;9.80;6.20;;;-2.90;99.90;;;;;;5049403;28;20689;-84
2021/12/21 08:16:45;;;;;;;10.07;7.80;;;;;;;;;;5052065;28;20230;-86
2021/12/21 08:19:12;;;;;;;5.80;5.22;;;;;;;;;;5050905;28;20269;-85
2021/12/21 08:21:40;;;;;;;7.72;5.75;;;;;;;;;;5050108;28;20207;-86
2021/12/21 08:24:08;;;;;;;7.75;5.82;;;;;;;;;;5049270;28;20192;-86
2021/12/21 08:26:36;;;;;;;13.18;5.97;;;;;;;;;;5048935;28;20208;-86
2021/12/21 08:29:03;;;;;;;6.35;5.00;;;;;;;;;;5049864;28;20218;-87
2021/12/21 08:31:32;;;;;;;7.82;5.60;;;-2.60;99.90;;;;;;5050214;28;20957;-87
2021/12/21 08:33:59;;;;;;;9.85;6.15;;;;;;;;;;5049560;28;20223;-86
2021/12/21 08:36:27;;;;;;;9.35;5.70;;;;;;;;;;5047947;28;20624;-86
2021/12/21 08:38:54;;;;;;;6.55;5.47;;;;;;;;;;5047176;28;20598;-88
2021/12/21 08:41:22;;;;;;;8.45;5.53;;;;;;;;;;5049560;28;20215;-86
2021/12/21 08:43:50;;;;;;;7.97;4.88;;;;;;;;;;5046286;28;20220;-87
2021/12/21 08:46:17;;;;;;;7.88;5.93;;;;;;;;;;5047690;28;20649;-87
2021/12/21 08:48:47;;;;;;;13.40;5.25;;;;;;;;;;5050907;28;20294;-88
2021/12/21 08:51:14;;;;;;;6.72;4.60;;;;;;;;;;5049640;28;20581;-86
2021/12/21 08:53:42;;;;;;;5.78;5.15;;;;;;;;;;5050671;28;20206;-87
2021/12/21 08:56:10;;;;;;;11.27;5.15;;;-1.80;99.90;;;;;;5051080;28;20752;-87
2021/12/21 08:58:37;;;;;;;6.57;4.85;;;;;;;;;;5051603;28;20204;-86
2021/12/21 09:01:08;;;;;;;8.18;5.13;;;;;;;;;;5049155;28;20211;-86
2021/12/21 09:03:35;;;;;;;6.00;4.50;;;;;;;;;;5052352;28;20608;-86
2021/12/21 09:06:04;;;;;;;5.30;4.88;;;-1.10;99.90;;;;;;5050530;28;20220;-85
2021/12/21 09:08:32;;;;;;;9.75;6.47;;;;;;;;;;5047862;28;20195;-84
2021/12/21 09:11:04;;;;;;;6.88;5.25;;;;;;;;;;5049708;28;20206;-83
2021/12/21 09:13:31;;;;;;;11.80;4.97;;;;;;;;;;5048895;28;20363;-84
2021/12/21 09:15:58;;;;;;;11.00;4.93;;;;;;;;;;5048337;28;20219;-85
2021/12/21 09:18:26;;;;;;;6.93;5.22;;;;;;;;;;5049984;28;20224;-86
2021/12/21 09:20:53;;;;;;;5.78;5.05;;;;;;;;;;5051001;28;20204;-86
2021/12/21 09:23:22;;;;;;;10.45;5.15;;;;;;;;;;5048152;28;20253;-85
2021/12/21 09:25:50;;;;;;;9.82;6.18;;;;;;;;;;5048582;28;20254;-85
2021/12/21 09:28:17;;;;;;;5.03;4.63;;;;;;;;;;5048084;28;20208;-84
2021/12/21 09:30:44;;;;;;;8.10;5.70;;;;;;;;;;5047880;28;20207;-85
2021/12/21 09:33:11;;;;;;;6.13;4.95;;;;;;;;;;5049458;28;20197;-84
2021/12/21 09:35:39;;;;;;;9.18;4.85;;;;;;;;;;5050055;28;20215;-85
2021/12/21 09:38:06;;;;;;;5.50;4.90;;;;;;;;;;5042451;28;20235;-84
2021/12/21 09:40:39;;;;;;;7.40;5.97;;;-0.10;99.00;;;;;;5049341;28;20208;-84
2021/12/21 09:43:07;;;;;;;6.85;5.45;;;0.00;98.70;;;;;;5027917;28;20220;-84
2021/12/21 09:45:35;;;;;;;7.05;5.40;;;;;;;;;;5026031;28;20193;-84
2021/12/21 09:48:02;;;;;;;13.43;6.50;;;;;;;;;;5026049;28;20201;-84
2021/12/21 09:50:29;;;;;;;9.88;6.13;;;;;;;;;;5025598;28;20197;-84
2021/12/21 09:52:57;;;;;;;6.65;5.00;;;;;;;;;;5025838;28;20262;-84
2021/12/21 09:55:24;;;;;;;5.85;5.20;;;;;;;;;;5024063;28;20200;-84
2021/12/21 09:57:53;;;;;;;8.00;5.72;;;0.20;98.40;;;;;;5026490;28;20621;-85
2021/12/21 10:00:22;;;;;;;5.63;4.93;;;0.20;98.40;;;;;;5024454;28;20247;-85
2021/12/21 10:02:52;;;;;;;6.82;5.60;;;0.10;99.40;;;;;;5025547;28;20201;-85
2021/12/21 10:05:21;;;;;;;7.63;5.60;;;0.20;99.50;;;;;;5025927;28;20197;-85
2021/12/21 10:07:59;;;;;;;8.57;6.50;;;1.50;99.90;;;;;;5026821;28;20200;-85
2021/12/21 10:10:26;;;;;;;8.90;5.82;;;;;;;;;;5025193;28;20395;-85
2021/12/21 10:12:55;;;;;;;7.15;5.20;;;;;;;;;;5026291;28;20367;-84
2021/12/21 10:15:24;;;;;;;9.23;5.95;;;;;;;;;;5023660;28;20278;-85
2021/12/21 10:17:53;;;;;;;8.65;7.07;;;0.30;99.20;;;;;;5022993;28;20232;-84
2021/12/21 10:20:37;;;;;;;8.77;6.68;;;0.30;98.90;;;;;;5025246;28;20196;-84
2021/12/21 10:23:09;;;;;;;8.50;6.22;;;0.10;98.70;;;;;;5023586;28;20732;-84
2021/12/21 10:25:42;;;;;;;8.57;5.53;;;0.40;98.80;;;;;;5024808;28;20197;-85
2021/12/21 10:28:11;;;;;;;10.27;5.53;;;0.40;98.80;;;;;;5024766;28;20255;-84
2021/12/21 10:30:49;;;;;;;6.97;5.47;;;0.40;98.70;;;;;;5023480;28;20212;-84
2021/12/21 10:33:16;;;;;;;9.18;5.65;;;;;;;;;;5026357;28;20234;-84
2021/12/21 10:35:43;;;;;;;9.35;6.15;;;;;;;;;;5020924;28;20212;-83
2021/12/21 10:38:11;;;;;;;7.32;5.38;;;;;;;;;;5025517;28;20258;-84
2021/12/21 10:40:40;;;;;;;8.05;5.85;;;;;;;;;;5018893;28;20232;-83
2021/12/21 10:43:10;;;;;;;8.25;4.60;;;0.60;98.20;;;;;;5023536;28;20211;-85
2021/12/21 10:45:41;;;;;;;6.85;6.13;;;0.60;98.30;;;;;;5024872;28;20193;-84
2021/12/21 10:48:15;;;;;;;7.03;5.22;;;0.30;98.70;;;;;;5024131;28;20192;-84
2021/12/21 10:50:43;;;;;;;5.93;5.32;;;;;;;;;;5024071;28;20205;-85
2021/12/21 10:53:17;;;;;;;5.80;4.55;;;0.60;99.00;;;;;;5025323;28;20197;-84
2021/12/21 10:55:44;;;;;;;6.03;5.38;;;;;;;;;;5023223;28;20203;-84
2021/12/21 10:58:20;;;;;;;11.00;5.40;;;0.60;99.00;;;;;;5024599;28;20228;-84
2021/12/21 11:00:53;;;;;;;7.13;5.72;;;0.60;98.60;;;;;;5024519;28;20212;-83
2021/12/21 11:03:31;;;;;;;6.53;5.05;;;0.50;98.50;;;;;;5027421;28;20208;-84
2021/12/21 11:06:08;;;;;;;7.93;5.55;;;;;;;;;;5024905;28;20930;-84
2021/12/21 11:08:37;;;;;;;5.22;4.72;;;0.70;98.10;;;;;;5025058;28;20205;-84
2021/12/21 11:11:10;;;;;;;8.75;6.40;;;;;;;;;;5026352;28;20209;-84
2021/12/21 11:13:38;;;;;;;6.13;5.18;;;;;;;;;;5020866;28;20288;-83
2021/12/21 11:16:07;;;;;;;5.38;4.68;;;0.70;98.00;;;;;;5025376;28;20275;-84
2021/12/21 11:18:37;;;;;;;6.20;5.07;;;;;;;;;;5028819;28;20662;-83
2021/12/21 11:21:09;;;;;;;10.88;6.18;;;0.70;97.70;;;;;;5020799;28;20271;-83
2021/12/21 11:23:38;;;;;;;6.82;5.03;;;;;;;;;;5027479;28;20204;-84
2021/12/21 11:26:07;;;;;;;6.47;4.20;;;1.00;96.20;;;;;;5021982;28;20865;-83
2021/12/21 11:28:36;;;;;;;10.40;5.00;;;0.80;96.40;;;;;;5023568;28;20205;-84
2021/12/21 11:31:08;;;;;;;7.82;4.72;;;0.90;96.60;;;;;;5025398;28;20212;-85
2021/12/21 11:33:43;;;;;;;5.60;4.63;;;0.90;96.30;;;;;;5020227;28;20224;-84
2021/12/21 11:38:58;;;;;;;4.70;3.53;;;;;;;;;;5030372;28;20240;-84
2021/12/21 11:41:26;;;;;;;6.90;4.55;;;0.40;96.60;;;;;;5024813;28;20732;-84
2021/12/21 11:44:02;;;;;;;6.28;4.18;;;1.00;96.00;;;;;;5025429;28;20208;-84
2021/12/21 11:46:51;;;;;;;5.28;3.92;;;1.10;95.40;;;;;;5019320;28;20671;-84
2021/12/21 11:49:30;;;;;;;11.07;4.75;;;0.90;95.50;;;;;;5024826;28;20201;-84
2021/12/21 11:52:09;;;;;;;5.90;4.50;;;1.10;94.90;;;;;;5028237;28;20283;-84
2021/12/21 11:54:50;;;;;;;4.35;3.95;;;1.20;95.20;;;;;;5026494;28;20196;-83
2021/12/21 11:57:20;;;;;;;7.18;6.38;;;1.20;94.80;;;;;;5020985;28;20197;-84
2021/12/21 11:59:47;;;;;;;6.57;4.72;;;;;;;;;;5028125;28;20208;-83
2021/12/21 12:02:16;;;;;;;5.78;5.22;;;;;;;;;;5029105;28;20205;-84
2021/12/21 12:04:43;;;;;;;5.93;4.93;;;;;;;;;;5024186;28;20197;-84
2021/12/21 12:07:17;;;;;;;7.05;4.68;;;1.20;94.20;;;;;;5029239;28;20201;-84
2021/12/21 12:09:45;;;;;;;5.07;4.55;;;;;;;;;;5025679;28;20204;-84
2021/12/21 12:12:13;;;;;;;6.43;5.25;;;1.10;95.80;;;;;;5028272;28;20288;-84
2021/12/21 12:14:42;;;;;;;7.72;4.85;;;1.20;95.80;;;;;;5027556;28;20219;-83
2021/12/21 12:17:17;;;;;;;7.05;4.25;;;1.10;95.10;;;;;;5028605;28;20211;-84
2021/12/21 12:19:53;;;;;;;5.72;4.45;;;1.30;96.00;;;;;;5025264;28;20208;-84
2021/12/21 12:22:24;;;;;;;6.15;4.88;;;;;;;;;;5027654;28;20801;-83
2021/12/21 12:24:57;;;;;;;5.85;4.45;;;1.30;95.00;;;;;;5026811;28;20207;-83
2021/12/21 12:27:26;;;;;;;6.45;4.90;;;1.30;94.90;;;;;;5025217;28;20204;-83
2021/12/21 12:29:54;;;;;;;5.82;5.20;;;1.30;94.70;;;;;;5028398;28;20212;-84
2021/12/21 12:32:33;;;;;;;5.35;4.32;;;;;;;;;;5019864;28;20306;-84
2021/12/21 12:35:21;;;;;;;5.55;4.63;;;1.50;95.40;;;;;;5024079;28;20626;-84
2021/12/21 12:37:50;;;;;;;8.85;5.55;;;1.40;95.40;;;;;;5028344;28;20232;-83
2021/12/21 12:40:18;;;;;;;7.15;3.83;;;1.00;94.40;;;;;;5026663;28;20189;-82
2021/12/21 12:42:55;;;;;;;6.28;4.28;;;1.50;94.50;;;;;;5025710;28;20204;-83
2021/12/21 12:45:23;;;;;;;7.30;4.28;;;;;;;;;;5027045;28;20820;-83
2021/12/21 12:47:54;;;;;;;7.20;5.10;;;1.60;94.30;;;;;;5028894;28;20193;-83
2021/12/21 12:50:27;;;;;;;5.80;4.40;;;1.50;94.60;;;;;;5025536;28;20219;-83
2021/12/21 12:52:57;;;;;;;8.07;4.55;;;1.50;94.50;;;;;;5028797;28;20200;-83
2021/12/21 12:55:26;;;;;;;5.25;4.43;;;1.50;94.00;;;;;;5026263;28;20204;-84
2021/12/21 12:57:57;;;;;;;5.82;4.45;;;1.50;94.60;;;;;;5028304;28;20228;-83
2021/12/21 13:00:25;;;;;;;4.82;4.43;;;;;;;;;;5026283;28;20204;-84
2021/12/21 13:02:57;;;;;;;6.60;5.18;;;1.50;95.00;;;;;;5027303;28;20196;-82
2021/12/21 13:05:27;;;;;;;10.23;5.43;;;1.60;94.40;;;;;;5025941;28;20212;-83
2021/12/21 13:07:55;;;;;;;5.82;5.25;;;;;;;;;;5025166;28;20615;-84
2021/12/21 13:10:24;;;;;;;6.15;5.03;;;1.60;93.40;;;;;;5027625;28;20201;-83
2021/12/21 13:12:57;;;;;;;5.40;4.75;;;;;;;;;;5026108;28;20205;-83
2021/12/21 13:15:34;;;;;;;8.60;5.10;;;1.60;94.10;;;;;;5023477;28;20209;-85
2021/12/21 13:18:04;;;;;;;9.02;6.50;;;1.70;94.50;;;;;;5025548;28;20270;-85
2021/12/21 13:20:33;;;;;;;7.75;5.22;;;1.60;94.50;;;;;;5027114;28;20201;-83
2021/12/21 13:23:09;;;;;;;8.30;6.35;;;;;;;;;;5028236;28;20201;-85
2021/12/21 13:25:37;;;;;;;7.10;5.95;;;;;;;;;;5030463;28;20207;-83
2021/12/21 13:28:09;;;;;;;8.43;5.07;;;;;;;;;;5023576;28;20274;-83
2021/12/21 13:30:36;;;;;;;5.38;4.88;;;;;;;;;;5026334;28;20578;-82
2021/12/21 13:33:06;;;;;;;6.20;5.43;;;1.50;96.00;;;;;;5022537;28;20656;-83
2021/12/21 13:35:33;;;;;;;7.65;5.28;;;;;;;;;;5027761;28;20283;-83
2021/12/21 13:38:00;;;;;;;5.88;5.25;;;;;;;;;;5028386;28;20235;-83
2021/12/21 13:40:30;;;;;;;6.80;5.28;;;;;;;;;;5028257;28;20200;-83
2021/12/21 13:42:58;;;;;;;11.52;4.57;;;;;;;;;;5020968;28;20287;-83
2021/12/21 13:45:25;;;;;;;11.90;5.00;;;;;;;;;;5023748;28;20655;-82
2021/12/21 13:47:52;;;;;;;5.25;4.68;;;;;;;;;;5026437;28;20291;-83
2021/12/21 13:50:25;;;;;;;5.40;4.80;;;1.40;95.50;;;;;;5024599;28;20194;-82
2021/12/21 13:52:56;;;;;;;5.80;4.80;;;1.40;95.00;;;;;;5027001;28;20201;-82
2021/12/21 13:55:25;;;;;;;6.55;4.28;;;1.50;94.70;;;;;;5019692;28;20216;-84
2021/12/21 13:57:57;;;;;;;5.80;4.20;;;1.40;94.50;;;;;;5025462;28;20252;-83
2021/12/21 14:00:26;;;;;;;5.13;4.60;;;1.40;94.40;;;;;;5023174;28;20258;-82
2021/12/21 14:03:03;;;;;;;4.80;4.30;;;;;;;;;;5018553;28;20271;-82
2021/12/21 14:05:42;;;;;;;4.30;3.47;;;1.30;94.80;;;;;;5021113;28;20201;-83
2021/12/21 14:08:10;;;;;;;4.78;4.35;;;;;;;;;;5015838;28;20217;-83
2021/12/21 14:10:42;;;;;;;4.95;4.45;;;1.50;94.00;;;;;;5020356;28;20216;-83
2021/12/21 14:13:09;;;;;;;4.20;3.80;;;1.30;94.70;;;;;;5023385;28;20262;-83
2021/12/21 14:15:37;;;;;;;5.60;3.92;;;;;;;;;;5020014;28;20205;-83
2021/12/21 14:18:19;;;;;;;5.10;3.90;;;1.40;94.60;;;;;;5021349;28;20215;-82
2021/12/21 14:20:49;;;;;;;4.45;4.05;;;1.50;94.30;;;;;;5021633;28;20205;-83
2021/12/21 14:23:18;;;;;;;4.45;3.85;;;1.50;94.30;;;;;;5015421;28;20239;-83
2021/12/21 14:25:45;;;;;;;4.15;3.20;;;;;;;;;;5022686;28;20232;-83
2021/12/21 14:28:14;;;;;;;4.95;4.10;;;1.20;94.90;;;;;;5018138;28;20263;-84
2021/12/21 14:30:42;;;;;;;6.45;4.10;;;;;;;;;;5018966;28;20221;-84
2021/12/21 14:33:21;;;;;;;4.90;3.70;;;;;;;;;;5019362;28;20204;-84
2021/12/21 14:35:53;;;;;;;4.43;3.63;;;;;;;;;;5022465;28;20290;-83
2021/12/21 14:38:20;;;;;;;8.95;4.68;;;;;;;;;;5025029;28;20733;-83
2021/12/21 14:40:50;;;;;;;7.60;5.25;;;;;;;;;;5023904;28;20213;-83
2021/12/21 14:43:24;;;;;;;4.68;4.07;;;;;;;;;;5021779;28;20240;-83
2021/12/21 14:45:51;;;;;;;5.22;4.72;;;;;;;;;;5022321;28;20239;-83
2021/12/21 14:48:20;;;;;;;6.75;4.68;;;1.10;95.60;;;;;;5023655;28;20235;-83
2021/12/21 14:50:51;;;;;;;5.28;4.10;;;;;;;;;;5027193;28;20193;-83
2021/12/21 14:53:22;;;;;;;9.90;4.70;;;1.00;96.00;;;;;;5021909;28;20208;-84
2021/12/21 14:55:49;;;;;;;5.55;4.70;;;;;;;;;;5022112;28;20213;-84
2021/12/21 14:58:18;;;;;;;6.75;4.75;;;1.00;96.10;;;;;;5021599;28;20694;-83